sensor_id;sensor_type;location;lat;lon;timestamp;pressure;altitude;pressure_sealevel;temperature;humidity
7918;BME280;4004;42.624;23.386;2023-06-10T00:00:07;93795.94;;;17.08;100.00
7918;BME280;4004;42.624;23.386;2023-06-10T00:02:34;93797.56;;;16.98;100.00
7918;BME280;4004;42.624;23.386;2023-06-10T00:05:00;93794.19;;;16.87;100.00
7918;BME280;4004;42.624;23.386;2023-06-10T00:07:27;93761.19;;;16.50;100.00
7918;BME280;4004;42.624;23.386;2023-06-10T00:09:54;93790.13;;;16.64;100.00
7918;BME280;4004;42.624;23.386;2023-06-10T00:12:24;93797.44;;;16.71;100.00
7918;BME280;4004;42.624;23.386;2023-06-10T00:14:51;93797.81;;;16.73;100.00
7918;BME280;4004;42.624;23.386;2023-06-10T00:17:19;93792.31;;;16.84;100.00
7918;BME280;4004;42.624;23.386;2023-06-10T00:19:45;93796.53;;;16.88;100.00
7918;BME280;4004;42.624;23.386;2023-06-10T00:22:12;93795.72;;;16.91;100.00
7918;BME280;4004;42.624;23.386;2023-06-10T00:24:39;93801.09;;;16.98;100.00
7918;BME280;4004;42.624;23.386;2023-06-10T00:27:07;93789.38;;;17.05;100.00
7918;BME280;4004;42.624;23.386;2023-06-10T00:29:35;93786.31;;;16.99;100.00
7918;BME280;4004;42.624;23.386;2023-06-10T00:32:02;93795.22;;;17.00;100.00
7918;BME280;4004;42.624;23.386;2023-06-10T00:34:29;93799.78;;;17.10;100.00
7918;BME280;4004;42.624;23.386;2023-06-10T00:36:56;93803.56;;;17.20;100.00
7918;BME280;4004;42.624;23.386;2023-06-10T00:39:23;93806.56;;;17.29;100.00
7918;BME280;4004;42.624;23.386;2023-06-10T00:41:50;93801.06;;;17.36;100.00
7918;BME280;4004;42.624;23.386;2023-06-10T00:44:17;93791.75;;;17.34;100.00
7918;BME280;4004;42.624;23.386;2023-06-10T00:46:45;93802.13;;;17.43;100.00
7918;BME280;4004;42.624;23.386;2023-06-10T00:49:12;93792.72;;;17.51;100.00
7918;BME280;4004;42.624;23.386;2023-06-10T00:51:39;93808.47;;;17.32;100.00
7918;BME280;4004;42.624;23.386;2023-06-10T00:54:07;93806.75;;;17.11;100.00
7918;BME280;4004;42.624;23.386;2023-06-10T00:56:34;93799.06;;;17.06;100.00
7918;BME280;4004;42.624;23.386;2023-06-10T00:59:01;93799.78;;;17.10;100.00
7918;BME280;4004;42.624;23.386;2023-06-10T01:01:28;93807.56;;;17.08;100.00
7918;BME280;4004;42.624;23.386;2023-06-10T01:03:57;93805.97;;;17.14;100.00
7918;BME280;4004;42.624;23.386;2023-06-10T01:06:28;93794.66;;;17.16;100.00
7918;BME280;4004;42.624;23.386;2023-06-10T01:09:02;93804.63;;;17.30;100.00
7918;BME280;4004;42.624;23.386;2023-06-10T01:11:40;93797.97;;;17.34;100.00
7918;BME280;4004;42.624;23.386;2023-06-10T01:14:09;93777.59;;;17.19;100.00
7918;BME280;4004;42.624;23.386;2023-06-10T01:16:36;93802.97;;;17.39;100.00
7918;BME280;4004;42.624;23.386;2023-06-10T01:19:07;93804.13;;;17.38;100.00
7918;BME280;4004;42.624;23.386;2023-06-10T01:21:37;93807.94;;;17.45;100.00
7918;BME280;4004;42.624;23.386;2023-06-10T01:24:05;93806.78;;;17.46;100.00
7918;BME280;4004;42.624;23.386;2023-06-10T01:26:34;93813.72;;;17.50;100.00
7918;BME280;4004;42.624;23.386;2023-06-10T01:29:07;93816.81;;;17.49;100.00
7918;BME280;4004;42.624;23.386;2023-06-10T01:31:47;93813.28;;;17.52;100.00
7918;BME280;4004;42.624;23.386;2023-06-10T01:34:18;93803.59;;;17.51;100.00
7918;BME280;4004;42.624;23.386;2023-06-10T01:36:48;93811.34;;;17.52;100.00
7918;BME280;4004;42.624;23.386;2023-06-10T01:39:15;93809.13;;;17.44;100.00
7918;BME280;4004;42.624;23.386;2023-06-10T01:41:43;93805.59;;;17.47;100.00
7918;BME280;4004;42.624;23.386;2023-06-10T01:44:10;93808.41;;;17.39;100.00
7918;BME280;4004;42.624;23.386;2023-06-10T01:46:36;93806.44;;;17.40;100.00
7918;BME280;4004;42.624;23.386;2023-06-10T01:49:03;93806.81;;;17.42;100.00
7918;BME280;4004;42.624;23.386;2023-06-10T01:51:30;93799.78;;;17.45;100.00
7918;BME280;4004;42.624;23.386;2023-06-10T01:53:59;93807.13;;;17.48;100.00
7918;BME280;4004;42.624;23.386;2023-06-10T01:56:25;93797.78;;;17.49;100.00
7918;BME280;4004;42.624;23.386;2023-06-10T01:58:52;93799.34;;;17.50;100.00
7918;BME280;4004;42.624;23.386;2023-06-10T02:01:20;93798.16;;;17.51;100.00
7918;BME280;4004;42.624;23.386;2023-06-10T02:03:47;93795.03;;;17.52;100.00
7918;BME280;4004;42.624;23.386;2023-06-10T02:06:14;93796.22;;;17.51;100.00
7918;BME280;4004;42.624;23.386;2023-06-10T02:08:41;93797.75;;;17.52;100.00
7918;BME280;4004;42.624;23.386;2023-06-10T02:11:09;93797.41;;;17.50;100.00
7918;BME280;4004;42.624;23.386;2023-06-10T02:13:36;93797.34;;;17.54;100.00
7918;BME280;4004;42.624;23.386;2023-06-10T02:16:03;93792.25;;;17.56;100.00
7918;BME280;4004;42.624;23.386;2023-06-10T02:18:31;93794.97;;;17.56;100.00
7918;BME280;4004;42.624;23.386;2023-06-10T02:20:58;93790.28;;;17.60;100.00
7918;BME280;4004;42.624;23.386;2023-06-10T02:23:24;93784.13;;;17.56;100.00
7918;BME280;4004;42.624;23.386;2023-06-10T02:25:51;93781.00;;;17.57;100.00
7918;BME280;4004;42.624;23.386;2023-06-10T02:28:19;93777.44;;;17.60;100.00
7918;BME280;4004;42.624;23.386;2023-06-10T02:30:46;93772.88;;;17.54;100.00
7918;BME280;4004;42.624;23.386;2023-06-10T02:33:13;93776.50;;;17.44;100.00
7918;BME280;4004;42.624;23.386;2023-06-10T02:35:40;93766.38;;;17.48;100.00
7918;BME280;4004;42.624;23.386;2023-06-10T02:38:07;93771.84;;;17.44;100.00
7918;BME280;4004;42.624;23.386;2023-06-10T02:40:34;93769.13;;;17.44;100.00
7918;BME280;4004;42.624;23.386;2023-06-10T02:43:00;93771.06;;;17.44;100.00
7918;BME280;4004;42.624;23.386;2023-06-10T02:45:28;93768.78;;;17.38;100.00
7918;BME280;4004;42.624;23.386;2023-06-10T02:47:55;93773.44;;;17.42;100.00
7918;BME280;4004;42.624;23.386;2023-06-10T02:50:22;93762.50;;;17.45;100.00
7918;BME280;4004;42.624;23.386;2023-06-10T02:52:49;93759.84;;;17.42;100.00
7918;BME280;4004;42.624;23.386;2023-06-10T02:55:16;93750.19;;;17.37;100.00
7918;BME280;4004;42.624;23.386;2023-06-10T02:57:42;93753.41;;;17.28;100.00
7918;BME280;4004;42.624;23.386;2023-06-10T03:00:10;93751.94;;;17.20;100.00
7918;BME280;4004;42.624;23.386;2023-06-10T03:02:40;93755.88;;;17.15;100.00
7918;BME280;4004;42.624;23.386;2023-06-10T03:05:08;93759.44;;;17.09;100.00
7918;BME280;4004;42.624;23.386;2023-06-10T03:07:36;93761.28;;;17.19;100.00
7918;BME280;4004;42.624;23.386;2023-06-10T03:10:03;93761.22;;;17.23;100.00
7918;BME280;4004;42.624;23.386;2023-06-10T03:12:30;93755.78;;;17.23;100.00
7918;BME280;4004;42.624;23.386;2023-06-10T03:14:57;93762.00;;;17.23;100.00
7918;BME280;4004;42.624;23.386;2023-06-10T03:17:24;93757.34;;;17.24;100.00
7918;BME280;4004;42.624;23.386;2023-06-10T03:19:52;93756.69;;;17.12;100.00
7918;BME280;4004;42.624;23.386;2023-06-10T03:22:19;93756.63;;;17.19;100.00
7918;BME280;4004;42.624;23.386;2023-06-10T03:24:45;93770.50;;;17.25;100.00
7918;BME280;4004;42.624;23.386;2023-06-10T03:27:15;93772.78;;;17.30;100.00
7918;BME280;4004;42.624;23.386;2023-06-10T03:29:43;93768.13;;;17.31;100.00
7918;BME280;4004;42.624;23.386;2023-06-10T03:32:09;93774.22;;;17.38;100.00
7918;BME280;4004;42.624;23.386;2023-06-10T03:34:36;93772.22;;;17.46;100.00
7918;BME280;4004;42.624;23.386;2023-06-10T03:37:05;93775.22;;;17.52;100.00
7918;BME280;4004;42.624;23.386;2023-06-10T03:39:32;93772.50;;;17.52;100.00
7918;BME280;4004;42.624;23.386;2023-06-10T03:41:59;93774.38;;;17.58;100.00
7918;BME280;4004;42.624;23.386;2023-06-10T03:44:26;93787.09;;;17.65;100.00
7918;BME280;4004;42.624;23.386;2023-06-10T03:46:53;93779.28;;;17.71;100.00
7918;BME280;4004;42.624;23.386;2023-06-10T03:49:20;93778.44;;;17.74;100.00
7918;BME280;4004;42.624;23.386;2023-06-10T03:51:47;93786.91;;;17.83;100.00
7918;BME280;4004;42.624;23.386;2023-06-10T03:54:15;93791.50;;;17.90;100.00
7918;BME280;4004;42.624;23.386;2023-06-10T03:56:41;93792.16;;;17.97;100.00
7918;BME280;4004;42.624;23.386;2023-06-10T03:59:08;93786.31;;;17.99;100.00
7918;BME280;4004;42.624;23.386;2023-06-10T04:01:35;93780.44;;;18.00;100.00
7918;BME280;4004;42.624;23.386;2023-06-10T04:04:03;93794.91;;;17.94;100.00
7918;BME280;4004;42.624;23.386;2023-06-10T04:06:29;93791.81;;;17.92;100.00
7918;BME280;4004;42.624;23.386;2023-06-10T04:08:57;93786.97;;;17.76;100.00
7918;BME280;4004;42.624;23.386;2023-06-10T04:11:25;93787.81;;;17.69;100.00
7918;BME280;4004;42.624;23.386;2023-06-10T04:13:52;93757.59;;;17.36;100.00
7918;BME280;4004;42.624;23.386;2023-06-10T04:16:18;93790.63;;;17.31;100.00
7918;BME280;4004;42.624;23.386;2023-06-10T04:18:46;93802.44;;;17.17;100.00
7918;BME280;4004;42.624;23.386;2023-06-10T04:21:13;93804.84;;;17.08;100.00
7918;BME280;4004;42.624;23.386;2023-06-10T04:23:40;93808.03;;;17.03;100.00
7918;BME280;4004;42.624;23.386;2023-06-10T04:26:07;93803.34;;;17.04;100.00
7918;BME280;4004;42.624;23.386;2023-06-10T04:28:35;93808.88;;;16.96;100.00
7918;BME280;4004;42.624;23.386;2023-06-10T04:31:02;93809.56;;;17.01;100.00
7918;BME280;4004;42.624;23.386;2023-06-10T04:33:29;93810.41;;;16.97;100.00
7918;BME280;4004;42.624;23.386;2023-06-10T04:35:56;93803.44;;;16.96;100.00
7918;BME280;4004;42.624;23.386;2023-06-10T04:38:24;93810.09;;;16.88;100.00
7918;BME280;4004;42.624;23.386;2023-06-10T04:40:50;93802.78;;;16.85;100.00
7918;BME280;4004;42.624;23.386;2023-06-10T04:43:17;93801.25;;;16.81;100.00
7918;BME280;4004;42.624;23.386;2023-06-10T04:45:45;93807.00;;;16.86;100.00
7918;BME280;4004;42.624;23.386;2023-06-10T04:48:12;93811.25;;;16.87;100.00
7918;BME280;4004;42.624;23.386;2023-06-10T04:50:39;93805.78;;;16.94;100.00
7918;BME280;4004;42.624;23.386;2023-06-10T04:53:06;93804.97;;;16.97;100.00
7918;BME280;4004;42.624;23.386;2023-06-10T04:55:33;93798.31;;;17.02;100.00
7918;BME280;4004;42.624;23.386;2023-06-10T04:57:59;93799.81;;;17.07;100.00
7918;BME280;4004;42.624;23.386;2023-06-10T05:00:26;93798.31;;;17.02;100.00
7918;BME280;4004;42.624;23.386;2023-06-10T05:02:54;93796.34;;;17.06;100.00
7918;BME280;4004;42.624;23.386;2023-06-10T05:05:21;93799.88;;;17.03;100.00
7918;BME280;4004;42.624;23.386;2023-06-10T05:07:48;93803.53;;;17.24;100.00
7918;BME280;4004;42.624;23.386;2023-06-10T05:10:15;93800.63;;;17.38;100.00
7918;BME280;4004;42.624;23.386;2023-06-10T05:12:42;93793.69;;;17.37;100.00
7918;BME280;4004;42.624;23.386;2023-06-10T05:15:09;93792.41;;;17.45;100.00
7918;BME280;4004;42.624;23.386;2023-06-10T05:17:36;93797.97;;;17.65;100.00
7918;BME280;4004;42.624;23.386;2023-06-10T05:20:05;93797.38;;;17.85;100.00
7918;BME280;4004;42.624;23.386;2023-06-10T05:22:33;93787.34;;;18.05;100.00
7918;BME280;4004;42.624;23.386;2023-06-10T05:25:01;93790.16;;;18.25;100.00
7918;BME280;4004;42.624;23.386;2023-06-10T05:27:28;93791.31;;;18.51;100.00
7918;BME280;4004;42.624;23.386;2023-06-10T05:29:54;93783.28;;;18.68;100.00
7918;BME280;4004;42.624;23.386;2023-06-10T05:32:21;93787.00;;;18.81;100.00
7918;BME280;4004;42.624;23.386;2023-06-10T05:34:48;93781.22;;;18.99;100.00
7918;BME280;4004;42.624;23.386;2023-06-10T05:37:16;93787.09;;;19.37;100.00
7918;BME280;4004;42.624;23.386;2023-06-10T05:39:43;93760.75;;;19.71;100.00
7918;BME280;4004;42.624;23.386;2023-06-10T05:42:10;93794.50;;;20.13;100.00
7918;BME280;4004;42.624;23.386;2023-06-10T05:44:37;93789.06;;;20.13;100.00
7918;BME280;4004;42.624;23.386;2023-06-10T05:47:04;93792.63;;;20.10;100.00
7918;BME280;4004;42.624;23.386;2023-06-10T05:49:31;93790.16;;;19.99;100.00
7918;BME280;4004;42.624;23.386;2023-06-10T05:51:57;93801.22;;;19.92;100.00
7918;BME280;4004;42.624;23.386;2023-06-10T05:54:26;93802.69;;;19.97;100.00
7918;BME280;4004;42.624;23.386;2023-06-10T05:56:53;93794.41;;;20.00;100.00
7918;BME280;4004;42.624;23.386;2023-06-10T05:59:20;93801.84;;;20.16;100.00
7918;BME280;4004;42.624;23.386;2023-06-10T06:01:48;93803.75;;;20.36;100.00
7918;BME280;4004;42.624;23.386;2023-06-10T06:04:15;93809.09;;;20.59;100.00
7918;BME280;4004;42.624;23.386;2023-06-10T06:06:42;93811.88;;;20.88;100.00
7918;BME280;4004;42.624;23.386;2023-06-10T06:09:08;93816.34;;;21.11;100.00
7918;BME280;4004;42.624;23.386;2023-06-10T06:11:37;93793.81;;;21.07;100.00
7918;BME280;4004;42.624;23.386;2023-06-10T06:14:03;93820.78;;;21.22;100.00
7918;BME280;4004;42.624;23.386;2023-06-10T06:16:30;93813.34;;;21.22;100.00
7918;BME280;4004;42.624;23.386;2023-06-10T06:18:57;93812.94;;;21.24;100.00
7918;BME280;4004;42.624;23.386;2023-06-10T06:21:24;93811.84;;;21.21;100.00
7918;BME280;4004;42.624;23.386;2023-06-10T06:23:50;93812.25;;;21.20;100.00
7918;BME280;4004;42.624;23.386;2023-06-10T06:26:17;93813.53;;;21.15;100.00
7918;BME280;4004;42.624;23.386;2023-06-10T06:28:45;93789.47;;;21.10;100.00
7918;BME280;4004;42.624;23.386;2023-06-10T06:31:12;93802.34;;;21.26;100.00
7918;BME280;4004;42.624;23.386;2023-06-10T06:33:39;93808.78;;;21.32;100.00
7918;BME280;4004;42.624;23.386;2023-06-10T06:36:05;93805.63;;;21.33;100.00
7918;BME280;4004;42.624;23.386;2023-06-10T06:38:32;93811.00;;;21.37;100.00
7918;BME280;4004;42.624;23.386;2023-06-10T06:40:59;93802.97;;;21.46;100.00
7918;BME280;4004;42.624;23.386;2023-06-10T06:43:28;93812.38;;;21.45;100.00
7918;BME280;4004;42.624;23.386;2023-06-10T06:45:57;93799.66;;;21.68;100.00
7918;BME280;4004;42.624;23.386;2023-06-10T06:48:24;93803.31;;;21.90;100.00
7918;BME280;4004;42.624;23.386;2023-06-10T06:50:51;93802.41;;;21.93;100.00
7918;BME280;4004;42.624;23.386;2023-06-10T06:53:18;93801.56;;;21.97;100.00
7918;BME280;4004;42.624;23.386;2023-06-10T06:55:44;93799.34;;;21.91;100.00
7918;BME280;4004;42.624;23.386;2023-06-10T06:58:11;93808.78;;;21.90;100.00
7918;BME280;4004;42.624;23.386;2023-06-10T07:00:38;93800.69;;;22.00;100.00
7918;BME280;4004;42.624;23.386;2023-06-10T07:03:06;93798.72;;;22.13;100.00
7918;BME280;4004;42.624;23.386;2023-06-10T07:05:33;93782.19;;;22.17;100.00
7918;BME280;4004;42.624;23.386;2023-06-10T07:08:00;93799.63;;;22.35;100.00
7918;BME280;4004;42.624;23.386;2023-06-10T07:10:26;93802.56;;;22.54;100.00
7918;BME280;4004;42.624;23.386;2023-06-10T07:12:53;93801.47;;;22.64;100.00
7918;BME280;4004;42.624;23.386;2023-06-10T07:15:20;93797.84;;;22.67;100.00
7918;BME280;4004;42.624;23.386;2023-06-10T07:17:47;93772.41;;;22.80;100.00
7918;BME280;4004;42.624;23.386;2023-06-10T07:20:15;93796.22;;;23.17;99.89
7918;BME280;4004;42.624;23.386;2023-06-10T07:22:43;93797.91;;;23.81;98.19
7918;BME280;4004;42.624;23.386;2023-06-10T07:25:10;93797.59;;;24.41;92.62
7918;BME280;4004;42.624;23.386;2023-06-10T07:27:36;93802.19;;;24.45;89.32
7918;BME280;4004;42.624;23.386;2023-06-10T07:30:04;93795.69;;;24.51;88.77
7918;BME280;4004;42.624;23.386;2023-06-10T07:32:32;93791.50;;;24.47;89.67
7918;BME280;4004;42.624;23.386;2023-06-10T07:34:58;93799.09;;;24.33;90.27
7918;BME280;4004;42.624;23.386;2023-06-10T07:37:27;93791.91;;;24.76;88.67
7918;BME280;4004;42.624;23.386;2023-06-10T07:39:53;93793.84;;;25.26;84.53
7918;BME280;4004;42.624;23.386;2023-06-10T07:42:20;93796.53;;;26.09;78.13
7918;BME280;4004;42.624;23.386;2023-06-10T07:44:47;93801.00;;;26.82;69.96
7918;BME280;4004;42.624;23.386;2023-06-10T07:47:14;93793.59;;;27.12;64.42
7918;BME280;4004;42.624;23.386;2023-06-10T07:49:42;93797.44;;;26.91;63.55
7918;BME280;4004;42.624;23.386;2023-06-10T07:52:09;93788.81;;;26.98;60.81
7918;BME280;4004;42.624;23.386;2023-06-10T07:54:37;93791.03;;;27.08;58.23
7918;BME280;4004;42.624;23.386;2023-06-10T07:57:05;93784.69;;;27.41;56.71
7918;BME280;4004;42.624;23.386;2023-06-10T07:59:32;93787.94;;;27.40;55.12
7918;BME280;4004;42.624;23.386;2023-06-10T08:01:59;93787.88;;;27.25;55.93
7918;BME280;4004;42.624;23.386;2023-06-10T08:04:26;93791.19;;;27.53;53.94
7918;BME280;4004;42.624;23.386;2023-06-10T08:06:52;93790.22;;;27.56;53.12
7918;BME280;4004;42.624;23.386;2023-06-10T08:09:19;93791.59;;;27.37;55.36
7918;BME280;4004;42.624;23.386;2023-06-10T08:11:48;93787.91;;;26.92;55.15
7918;BME280;4004;42.624;23.386;2023-06-10T08:14:16;93791.06;;;26.42;54.93
7918;BME280;4004;42.624;23.386;2023-06-10T08:16:43;93792.78;;;26.30;56.36
7918;BME280;4004;42.624;23.386;2023-06-10T08:19:10;93788.81;;;26.31;56.19
7918;BME280;4004;42.624;23.386;2023-06-10T08:21:37;93783.34;;;26.22;56.45
7918;BME280;4004;42.624;23.386;2023-06-10T08:24:05;93779.72;;;26.07;54.87
7918;BME280;4004;42.624;23.386;2023-06-10T08:26:32;93783.16;;;26.25;54.57
7918;BME280;4004;42.624;23.386;2023-06-10T08:29:00;93774.78;;;26.53;53.37
7918;BME280;4004;42.624;23.386;2023-06-10T08:31:27;93769.84;;;26.66;53.77
7918;BME280;4004;42.624;23.386;2023-06-10T08:33:54;93760.94;;;26.96;53.67
7918;BME280;4004;42.624;23.386;2023-06-10T08:36:21;93773.81;;;27.14;50.45
7918;BME280;4004;42.624;23.386;2023-06-10T08:38:48;93766.59;;;27.16;50.69
7918;BME280;4004;42.624;23.386;2023-06-10T08:41:17;93766.97;;;27.09;52.78
7918;BME280;4004;42.624;23.386;2023-06-10T08:43:50;93761.28;;;26.88;53.04
7918;BME280;4004;42.624;23.386;2023-06-10T08:46:21;93763.97;;;26.40;54.25
7918;BME280;4004;42.624;23.386;2023-06-10T08:48:51;93776.03;;;26.10;48.96
7918;BME280;4004;42.624;23.386;2023-06-10T08:51:23;93765.25;;;25.60;47.90
7918;BME280;4004;42.624;23.386;2023-06-10T08:54:00;93741.72;;;25.13;47.78
7918;BME280;4004;42.624;23.386;2023-06-10T08:56:28;93759.47;;;25.30;48.19
7918;BME280;4004;42.624;23.386;2023-06-10T08:58:57;93756.22;;;25.04;50.44
7918;BME280;4004;42.624;23.386;2023-06-10T09:01:26;93757.28;;;25.07;50.80
7918;BME280;4004;42.624;23.386;2023-06-10T09:03:53;93744.00;;;25.05;50.37
7918;BME280;4004;42.624;23.386;2023-06-10T09:06:21;93740.78;;;24.79;50.30
7918;BME280;4004;42.624;23.386;2023-06-10T09:08:48;93741.06;;;24.72;50.14
7918;BME280;4004;42.624;23.386;2023-06-10T09:11:16;93734.38;;;24.82;52.09
7918;BME280;4004;42.624;23.386;2023-06-10T09:13:43;93745.09;;;25.26;49.88
7918;BME280;4004;42.624;23.386;2023-06-10T09:16:10;93740.81;;;25.53;48.62
7918;BME280;4004;42.624;23.386;2023-06-10T09:18:39;93748.00;;;25.32;47.29
7918;BME280;4004;42.624;23.386;2023-06-10T09:21:06;93735.94;;;25.20;49.16
7918;BME280;4004;42.624;23.386;2023-06-10T09:23:33;93735.75;;;25.05;48.09
7918;BME280;4004;42.624;23.386;2023-06-10T09:26:00;93729.31;;;24.90;49.35
7918;BME280;4004;42.624;23.386;2023-06-10T09:28:26;93738.69;;;25.20;49.32
7918;BME280;4004;42.624;23.386;2023-06-10T09:31:02;93735.13;;;25.56;48.75
7918;BME280;4004;42.624;23.386;2023-06-10T09:33:30;93729.25;;;25.82;47.05
7918;BME280;4004;42.624;23.386;2023-06-10T09:36:01;93730.59;;;26.05;47.29
7918;BME280;4004;42.624;23.386;2023-06-10T09:38:34;93729.16;;;26.19;46.99
7918;BME280;4004;42.624;23.386;2023-06-10T09:41:01;93729.59;;;26.26;47.80
7918;BME280;4004;42.624;23.386;2023-06-10T09:43:40;93727.94;;;26.20;48.54
7918;BME280;4004;42.624;23.386;2023-06-10T09:46:14;93730.84;;;26.16;47.52
7918;BME280;4004;42.624;23.386;2023-06-10T09:48:41;93723.44;;;25.89;45.99
7918;BME280;4004;42.624;23.386;2023-06-10T09:51:11;93733.75;;;25.70;44.38
7918;BME280;4004;42.624;23.386;2023-06-10T09:53:38;93725.06;;;25.44;46.55
7918;BME280;4004;42.624;23.386;2023-06-10T09:56:05;93719.41;;;25.11;46.99
7918;BME280;4004;42.624;23.386;2023-06-10T09:58:36;93716.78;;;25.07;48.57
7918;BME280;4004;42.624;23.386;2023-06-10T10:01:08;93708.72;;;25.31;46.78
7918;BME280;4004;42.624;23.386;2023-06-10T10:03:43;93714.66;;;25.39;46.27
7918;BME280;4004;42.624;23.386;2023-06-10T10:06:16;93709.63;;;25.47;47.51
7918;BME280;4004;42.624;23.386;2023-06-10T10:08:43;93703.00;;;25.62;46.55
7918;BME280;4004;42.624;23.386;2023-06-10T10:11:10;93707.53;;;25.84;46.38
7918;BME280;4004;42.624;23.386;2023-06-10T10:13:37;93705.72;;;25.72;46.14
7918;BME280;4004;42.624;23.386;2023-06-10T10:16:09;93692.03;;;25.44;47.26
7918;BME280;4004;42.624;23.386;2023-06-10T10:18:39;93694.19;;;25.03;48.73
7918;BME280;4004;42.624;23.386;2023-06-10T10:21:12;93694.03;;;24.70;50.22
7918;BME280;4004;42.624;23.386;2023-06-10T10:23:44;93693.47;;;24.34;49.33
7918;BME280;4004;42.624;23.386;2023-06-10T10:26:15;93691.88;;;24.06;49.99
7918;BME280;4004;42.624;23.386;2023-06-10T10:28:48;93687.88;;;23.97;50.86
7918;BME280;4004;42.624;23.386;2023-06-10T10:31:19;93694.03;;;24.11;49.52
7918;BME280;4004;42.624;23.386;2023-06-10T10:33:53;93684.59;;;24.21;49.52
7918;BME280;4004;42.624;23.386;2023-06-10T10:36:23;93685.19;;;24.16;50.83
7918;BME280;4004;42.624;23.386;2023-06-10T10:38:50;93689.09;;;23.96;51.11
7918;BME280;4004;42.624;23.386;2023-06-10T10:41:18;93682.50;;;23.85;50.76
7918;BME280;4004;42.624;23.386;2023-06-10T10:43:46;93673.72;;;23.99;50.05
7918;BME280;4004;42.624;23.386;2023-06-10T10:46:15;93673.13;;;24.04;48.63
7918;BME280;4004;42.624;23.386;2023-06-10T10:48:42;93676.81;;;24.10;47.05
7918;BME280;4004;42.624;23.386;2023-06-10T10:51:10;93673.19;;;23.82;47.03
7918;BME280;4004;42.624;23.386;2023-06-10T10:53:39;93666.41;;;23.74;48.87
7918;BME280;4004;42.624;23.386;2023-06-10T10:56:06;93666.94;;;23.82;49.74
7918;BME280;4004;42.624;23.386;2023-06-10T10:58:34;93668.00;;;23.84;49.07
7918;BME280;4004;42.624;23.386;2023-06-10T11:01:10;93659.91;;;23.81;49.49
7918;BME280;4004;42.624;23.386;2023-06-10T11:03:42;93662.97;;;23.83;49.68
7918;BME280;4004;42.624;23.386;2023-06-10T11:06:12;93662.97;;;23.83;49.61
7918;BME280;4004;42.624;23.386;2023-06-10T11:08:49;93664.94;;;23.82;48.82
7918;BME280;4004;42.624;23.386;2023-06-10T11:11:20;93651.75;;;23.99;51.18
7918;BME280;4004;42.624;23.386;2023-06-10T11:14:14;93648.41;;;24.13;50.30
7918;BME280;4004;42.624;23.386;2023-06-10T11:16:52;93643.06;;;24.10;48.65
7918;BME280;4004;42.624;23.386;2023-06-10T11:19:34;93640.63;;;24.12;48.84
7918;BME280;4004;42.624;23.386;2023-06-10T11:22:02;93638.19;;;24.05;50.75
7918;BME280;4004;42.624;23.386;2023-06-10T11:24:30;93637.88;;;24.03;49.67
7918;BME280;4004;42.624;23.386;2023-06-10T11:27:15;93630.88;;;24.11;48.62
7918;BME280;4004;42.624;23.386;2023-06-10T11:29:58;93629.06;;;24.17;47.60
7918;BME280;4004;42.624;23.386;2023-06-10T11:32:29;93618.72;;;24.30;49.38
7918;BME280;4004;42.624;23.386;2023-06-10T11:34:57;93627.41;;;24.38;48.98
7918;BME280;4004;42.624;23.386;2023-06-10T11:37:24;93629.41;;;24.37;49.28
7918;BME280;4004;42.624;23.386;2023-06-10T11:39:53;93621.16;;;24.47;48.19
7918;BME280;4004;42.624;23.386;2023-06-10T11:42:21;93612.03;;;24.59;48.21
7918;BME280;4004;42.624;23.386;2023-06-10T11:44:48;93613.72;;;24.66;47.32
7918;BME280;4004;42.624;23.386;2023-06-10T11:47:16;93616.75;;;24.68;47.48
7918;BME280;4004;42.624;23.386;2023-06-10T11:49:43;93613.41;;;24.73;46.64
7918;BME280;4004;42.624;23.386;2023-06-10T11:52:10;93601.03;;;24.77;47.64
7918;BME280;4004;42.624;23.386;2023-06-10T11:54:37;93604.22;;;25.03;46.84
7918;BME280;4004;42.624;23.386;2023-06-10T11:57:05;93607.97;;;25.34;45.85
7918;BME280;4004;42.624;23.386;2023-06-10T11:59:34;93615.59;;;25.48;47.02
7918;BME280;4004;42.624;23.386;2023-06-10T12:02:00;93608.41;;;25.51;46.89
7918;BME280;4004;42.624;23.386;2023-06-10T12:04:27;93599.66;;;25.52;48.57
7918;BME280;4004;42.624;23.386;2023-06-10T12:06:55;93607.03;;;25.46;47.24
7918;BME280;4004;42.624;23.386;2023-06-10T12:09:22;93604.31;;;25.37;45.92
7918;BME280;4004;42.624;23.386;2023-06-10T12:11:51;93599.75;;;25.67;44.30
7918;BME280;4004;42.624;23.386;2023-06-10T12:14:53;93609.38;;;25.72;45.70
7918;BME280;4004;42.624;23.386;2023-06-10T12:17:21;93600.19;;;25.75;44.87
7918;BME280;4004;42.624;23.386;2023-06-10T12:19:48;93601.06;;;25.90;43.70
7918;BME280;4004;42.624;23.386;2023-06-10T12:22:15;93598.72;;;25.98;43.94
7918;BME280;4004;42.624;23.386;2023-06-10T12:24:45;93594.31;;;25.91;44.37
7918;BME280;4004;42.624;23.386;2023-06-10T12:27:12;93600.22;;;25.99;45.46
7918;BME280;4004;42.624;23.386;2023-06-10T12:29:39;93597.63;;;26.04;45.77
7918;BME280;4004;42.624;23.386;2023-06-10T12:32:08;93599.56;;;26.37;44.28
7918;BME280;4004;42.624;23.386;2023-06-10T12:34:37;93597.25;;;26.36;44.28
7918;BME280;4004;42.624;23.386;2023-06-10T12:37:05;93588.75;;;26.24;45.38
7918;BME280;4004;42.624;23.386;2023-06-10T12:39:33;93585.84;;;26.28;45.67
7918;BME280;4004;42.624;23.386;2023-06-10T12:42:00;93586.59;;;26.29;46.03
7918;BME280;4004;42.624;23.386;2023-06-10T12:44:32;93574.16;;;26.33;44.63
7918;BME280;4004;42.624;23.386;2023-06-10T12:47:00;93567.00;;;26.51;44.19
7918;BME280;4004;42.624;23.386;2023-06-10T12:49:28;93570.66;;;26.72;43.79
7918;BME280;4004;42.624;23.386;2023-06-10T12:51:55;93565.94;;;26.87;43.22
7918;BME280;4004;42.624;23.386;2023-06-10T12:54:21;93573.44;;;26.86;41.77
7918;BME280;4004;42.624;23.386;2023-06-10T12:56:49;93577.88;;;26.69;41.51
7918;BME280;4004;42.624;23.386;2023-06-10T12:59:15;93571.25;;;26.76;41.26
7918;BME280;4004;42.624;23.386;2023-06-10T13:01:42;93581.06;;;26.92;41.18
7918;BME280;4004;42.624;23.386;2023-06-10T13:04:09;93564.94;;;26.60;43.03
7918;BME280;4004;42.624;23.386;2023-06-10T13:06:37;93572.00;;;26.76;41.57
7918;BME280;4004;42.624;23.386;2023-06-10T13:09:07;93577.50;;;26.76;43.24